Angra dos Reis, Brazil
Current Conditions -  °F | °C
As of 12:00 AM on Monday 20 Oct 2014 (Local Time) from SBSC Reporting Station
Broken Clouds Broken Clouds  
Wind Chill: 75°   Ceiling: 10000
Heat Index: 75°   Visibility: 5mi
Dew Point: 70°   Wind: 10mph
Humidity: 83%   Direction: 210°SSW
Pressure: 30"   Gusts: NA
Location:  23°S, 44.32°W
Report Text: SBSC 200300Z 21009KT 8000 SCT025 BKN100 24/21 Q1016
Loading
Personal Weather Stations






























Interactive Weather Map
Tropical Storm Tracking
New forecast layout! Learn more

10-Day Weather Forecast

Advertisements
Track Severe Weather on mobile